sensor_id;sensor_type;location;lat;lon;timestamp;temperature;humidity
25949;DHT22;13961;51.178;4.448;2023-04-10T00:00:09;11.70;99.90
25949;DHT22;13961;51.178;4.448;2023-04-10T00:02:35;11.70;99.90
25949;DHT22;13961;51.178;4.448;2023-04-10T00:05:02;11.90;99.90
25949;DHT22;13961;51.178;4.448;2023-04-10T00:07:27;12.00;99.90
25949;DHT22;13961;51.178;4.448;2023-04-10T00:09:53;12.00;99.90
25949;DHT22;13961;51.178;4.448;2023-04-10T00:12:19;12.00;99.90
25949;DHT22;13961;51.178;4.448;2023-04-10T00:14:45;12.00;99.90
25949;DHT22;13961;51.178;4.448;2023-04-10T00:17:11;11.80;99.90
25949;DHT22;13961;51.178;4.448;2023-04-10T00:19:37;11.70;99.90
25949;DHT22;13961;51.178;4.448;2023-04-10T00:22:04;11.90;99.90
25949;DHT22;13961;51.178;4.448;2023-04-10T00:24:30;12.00;99.90
25949;DHT22;13961;51.178;4.448;2023-04-10T00:26:56;12.00;99.90
25949;DHT22;13961;51.178;4.448;2023-04-10T00:29:22;12.00;99.90
25949;DHT22;13961;51.178;4.448;2023-04-10T00:31:48;12.10;99.90
25949;DHT22;13961;51.178;4.448;2023-04-10T00:34:14;12.30;99.90
25949;DHT22;13961;51.178;4.448;2023-04-10T00:36:40;12.00;99.90
25949;DHT22;13961;51.178;4.448;2023-04-10T00:39:07;12.10;99.90
25949;DHT22;13961;51.178;4.448;2023-04-10T00:41:33;11.50;99.90
25949;DHT22;13961;51.178;4.448;2023-04-10T00:43:59;11.40;99.90
25949;DHT22;13961;51.178;4.448;2023-04-10T00:46:25;11.50;99.90
25949;DHT22;13961;51.178;4.448;2023-04-10T00:48:52;11.40;99.90
25949;DHT22;13961;51.178;4.448;2023-04-10T00:51:19;11.30;99.90
25949;DHT22;13961;51.178;4.448;2023-04-10T00:53:49;11.10;99.90
25949;DHT22;13961;51.178;4.448;2023-04-10T00:56:16;11.30;99.90
25949;DHT22;13961;51.178;4.448;2023-04-10T00:58:42;11.20;99.90
25949;DHT22;13961;51.178;4.448;2023-04-10T01:01:08;11.30;99.90
25949;DHT22;13961;51.178;4.448;2023-04-10T01:03:34;11.10;99.90
25949;DHT22;13961;51.178;4.448;2023-04-10T01:09:19;11.20;99.90
25949;DHT22;13961;51.178;4.448;2023-04-10T01:11:57;11.30;99.90
25949;DHT22;13961;51.178;4.448;2023-04-10T01:17:21;11.10;99.90
25949;DHT22;13961;51.178;4.448;2023-04-10T01:22:37;11.30;99.90
25949;DHT22;13961;51.178;4.448;2023-04-10T01:25:37;11.20;99.90
25949;DHT22;13961;51.178;4.448;2023-04-10T01:28:15;11.30;99.90
25949;DHT22;13961;51.178;4.448;2023-04-10T01:30:47;11.30;99.90
25949;DHT22;13961;51.178;4.448;2023-04-10T01:33:16;11.30;99.90
25949;DHT22;13961;51.178;4.448;2023-04-10T01:35:48;11.20;99.90
25949;DHT22;13961;51.178;4.448;2023-04-10T01:38:19;11.20;99.90
25949;DHT22;13961;51.178;4.448;2023-04-10T01:40:51;11.10;99.90
25949;DHT22;13961;51.178;4.448;2023-04-10T01:43:18;11.20;99.90
25949;DHT22;13961;51.178;4.448;2023-04-10T01:45:45;10.90;99.90
25949;DHT22;13961;51.178;4.448;2023-04-10T01:48:13;11.00;99.90
25949;DHT22;13961;51.178;4.448;2023-04-10T01:50:41;11.00;99.90
25949;DHT22;13961;51.178;4.448;2023-04-10T01:53:07;11.10;99.90
25949;DHT22;13961;51.178;4.448;2023-04-10T01:55:33;10.80;99.90
25949;DHT22;13961;51.178;4.448;2023-04-10T01:58:01;10.80;99.90
25949;DHT22;13961;51.178;4.448;2023-04-10T02:00:27;10.70;99.90
25949;DHT22;13961;51.178;4.448;2023-04-10T02:02:55;10.80;99.90
25949;DHT22;13961;51.178;4.448;2023-04-10T02:05:28;10.80;99.90
25949;DHT22;13961;51.178;4.448;2023-04-10T02:07:58;10.80;99.90
25949;DHT22;13961;51.178;4.448;2023-04-10T02:10:46;10.80;99.90
25949;DHT22;13961;51.178;4.448;2023-04-10T02:13:14;10.70;99.90
25949;DHT22;13961;51.178;4.448;2023-04-10T02:15:46;10.90;99.90
25949;DHT22;13961;51.178;4.448;2023-04-10T02:18:17;11.00;99.90
25949;DHT22;13961;51.178;4.448;2023-04-10T02:20:44;11.00;99.90
25949;DHT22;13961;51.178;4.448;2023-04-10T02:23:11;11.30;99.90
25949;DHT22;13961;51.178;4.448;2023-04-10T02:25:37;11.20;99.90
25949;DHT22;13961;51.178;4.448;2023-04-10T02:28:03;10.80;99.90
25949;DHT22;13961;51.178;4.448;2023-04-10T02:30:29;10.80;99.90
25949;DHT22;13961;51.178;4.448;2023-04-10T02:32:55;11.00;99.90
25949;DHT22;13961;51.178;4.448;2023-04-10T02:35:20;10.90;99.90
25949;DHT22;13961;51.178;4.448;2023-04-10T02:37:46;11.00;99.90
25949;DHT22;13961;51.178;4.448;2023-04-10T02:40:13;11.10;99.90
25949;DHT22;13961;51.178;4.448;2023-04-10T02:42:39;10.90;99.90
25949;DHT22;13961;51.178;4.448;2023-04-10T02:45:05;10.90;99.90
25949;DHT22;13961;51.178;4.448;2023-04-10T02:47:31;11.00;99.90
25949;DHT22;13961;51.178;4.448;2023-04-10T02:49:57;11.20;99.90
25949;DHT22;13961;51.178;4.448;2023-04-10T02:52:22;11.20;99.90
25949;DHT22;13961;51.178;4.448;2023-04-10T02:54:48;11.20;99.90
25949;DHT22;13961;51.178;4.448;2023-04-10T02:57:14;11.30;99.90
25949;DHT22;13961;51.178;4.448;2023-04-10T02:59:40;11.10;99.90
25949;DHT22;13961;51.178;4.448;2023-04-10T03:02:06;11.10;99.90
25949;DHT22;13961;51.178;4.448;2023-04-10T03:04:32;11.00;99.90
25949;DHT22;13961;51.178;4.448;2023-04-10T03:06:58;11.00;99.90
25949;DHT22;13961;51.178;4.448;2023-04-10T03:09:23;10.90;99.90
25949;DHT22;13961;51.178;4.448;2023-04-10T03:11:49;11.20;99.90
25949;DHT22;13961;51.178;4.448;2023-04-10T03:14:15;11.10;99.90
25949;DHT22;13961;51.178;4.448;2023-04-10T03:16:43;11.00;99.90
25949;DHT22;13961;51.178;4.448;2023-04-10T03:19:09;11.10;99.90
25949;DHT22;13961;51.178;4.448;2023-04-10T03:21:35;11.30;99.90
25949;DHT22;13961;51.178;4.448;2023-04-10T03:24:01;11.10;99.90
25949;DHT22;13961;51.178;4.448;2023-04-10T03:26:27;11.20;99.90
25949;DHT22;13961;51.178;4.448;2023-04-10T03:29:01;11.10;99.90
25949;DHT22;13961;51.178;4.448;2023-04-10T03:31:26;11.00;99.90
25949;DHT22;13961;51.178;4.448;2023-04-10T03:33:55;11.10;99.90
25949;DHT22;13961;51.178;4.448;2023-04-10T03:36:21;11.20;99.90
25949;DHT22;13961;51.178;4.448;2023-04-10T03:38:47;11.20;99.90
25949;DHT22;13961;51.178;4.448;2023-04-10T03:41:12;11.20;99.90
25949;DHT22;13961;51.178;4.448;2023-04-10T03:43:38;11.40;99.90
25949;DHT22;13961;51.178;4.448;2023-04-10T03:46:04;11.20;99.90
25949;DHT22;13961;51.178;4.448;2023-04-10T03:48:30;11.30;99.90
25949;DHT22;13961;51.178;4.448;2023-04-10T03:50:57;11.30;99.90
25949;DHT22;13961;51.178;4.448;2023-04-10T03:53:23;11.20;99.90
25949;DHT22;13961;51.178;4.448;2023-04-10T03:55:49;10.70;99.90
25949;DHT22;13961;51.178;4.448;2023-04-10T03:58:17;10.70;99.90
25949;DHT22;13961;51.178;4.448;2023-04-10T04:00:43;10.60;99.90
25949;DHT22;13961;51.178;4.448;2023-04-10T04:03:08;10.70;99.90
25949;DHT22;13961;51.178;4.448;2023-04-10T04:05:34;10.70;99.90
25949;DHT22;13961;51.178;4.448;2023-04-10T04:08:00;10.80;99.90
25949;DHT22;13961;51.178;4.448;2023-04-10T04:10:25;10.70;99.90
25949;DHT22;13961;51.178;4.448;2023-04-10T04:12:51;10.40;99.90
25949;DHT22;13961;51.178;4.448;2023-04-10T04:15:17;10.20;99.90
25949;DHT22;13961;51.178;4.448;2023-04-10T04:17:42;10.10;99.90
25949;DHT22;13961;51.178;4.448;2023-04-10T04:20:10;10.20;99.90
25949;DHT22;13961;51.178;4.448;2023-04-10T04:22:36;10.30;99.90
25949;DHT22;13961;51.178;4.448;2023-04-10T04:25:02;10.40;99.90
25949;DHT22;13961;51.178;4.448;2023-04-10T04:27:32;10.50;99.90
25949;DHT22;13961;51.178;4.448;2023-04-10T04:29:57;10.50;99.90
25949;DHT22;13961;51.178;4.448;2023-04-10T04:32:23;10.60;99.90
25949;DHT22;13961;51.178;4.448;2023-04-10T04:34:49;10.60;99.90
25949;DHT22;13961;51.178;4.448;2023-04-10T04:37:14;10.60;99.90
25949;DHT22;13961;51.178;4.448;2023-04-10T04:39:40;10.60;99.90
25949;DHT22;13961;51.178;4.448;2023-04-10T04:42:05;10.40;99.90
25949;DHT22;13961;51.178;4.448;2023-04-10T04:44:32;10.60;99.90
25949;DHT22;13961;51.178;4.448;2023-04-10T04:46:57;10.50;99.90
25949;DHT22;13961;51.178;4.448;2023-04-10T04:49:23;10.80;99.90
25949;DHT22;13961;51.178;4.448;2023-04-10T04:51:49;10.70;99.90
25949;DHT22;13961;51.178;4.448;2023-04-10T04:54:14;10.90;99.90
25949;DHT22;13961;51.178;4.448;2023-04-10T04:56:43;11.00;99.90
25949;DHT22;13961;51.178;4.448;2023-04-10T04:59:17;10.70;99.90
25949;DHT22;13961;51.178;4.448;2023-04-10T05:01:43;10.60;99.90
25949;DHT22;13961;51.178;4.448;2023-04-10T05:04:09;10.80;99.90
25949;DHT22;13961;51.178;4.448;2023-04-10T05:06:34;10.30;99.90
25949;DHT22;13961;51.178;4.448;2023-04-10T05:09:01;10.20;99.90
25949;DHT22;13961;51.178;4.448;2023-04-10T05:11:27;10.50;99.90
25949;DHT22;13961;51.178;4.448;2023-04-10T05:13:52;10.30;99.90
25949;DHT22;13961;51.178;4.448;2023-04-10T05:16:18;10.20;99.90
25949;DHT22;13961;51.178;4.448;2023-04-10T05:18:45;9.80;99.90
25949;DHT22;13961;51.178;4.448;2023-04-10T05:21:10;10.10;99.90
25949;DHT22;13961;51.178;4.448;2023-04-10T05:23:36;10.20;99.90
25949;DHT22;13961;51.178;4.448;2023-04-10T05:26:02;10.20;99.90
25949;DHT22;13961;51.178;4.448;2023-04-10T05:28:27;9.90;99.90
25949;DHT22;13961;51.178;4.448;2023-04-10T05:30:53;9.90;99.90
25949;DHT22;13961;51.178;4.448;2023-04-10T05:33:19;10.10;99.90
25949;DHT22;13961;51.178;4.448;2023-04-10T05:35:45;10.40;99.90
25949;DHT22;13961;51.178;4.448;2023-04-10T05:38:11;10.30;99.90
25949;DHT22;13961;51.178;4.448;2023-04-10T05:40:36;10.50;99.90
25949;DHT22;13961;51.178;4.448;2023-04-10T05:43:02;10.30;99.90
25949;DHT22;13961;51.178;4.448;2023-04-10T05:45:28;10.10;99.90
25949;DHT22;13961;51.178;4.448;2023-04-10T05:47:54;10.30;99.90
25949;DHT22;13961;51.178;4.448;2023-04-10T05:50:20;10.10;99.90
25949;DHT22;13961;51.178;4.448;2023-04-10T05:52:45;10.20;99.90
25949;DHT22;13961;51.178;4.448;2023-04-10T05:55:11;10.40;99.90
25949;DHT22;13961;51.178;4.448;2023-04-10T05:57:38;10.50;99.90
25949;DHT22;13961;51.178;4.448;2023-04-10T06:00:04;10.90;99.90
25949;DHT22;13961;51.178;4.448;2023-04-10T06:02:31;10.80;99.90
25949;DHT22;13961;51.178;4.448;2023-04-10T06:04:57;10.90;99.90
25949;DHT22;13961;51.178;4.448;2023-04-10T06:07:22;10.50;99.90
25949;DHT22;13961;51.178;4.448;2023-04-10T06:09:48;10.50;99.90
25949;DHT22;13961;51.178;4.448;2023-04-10T06:12:16;10.50;99.90
25949;DHT22;13961;51.178;4.448;2023-04-10T06:14:42;10.80;99.90
25949;DHT22;13961;51.178;4.448;2023-04-10T06:17:10;10.90;99.90
25949;DHT22;13961;51.178;4.448;2023-04-10T06:19:36;10.90;99.90
25949;DHT22;13961;51.178;4.448;2023-04-10T06:22:01;11.00;99.90
25949;DHT22;13961;51.178;4.448;2023-04-10T06:24:27;10.90;99.90
25949;DHT22;13961;51.178;4.448;2023-04-10T06:26:52;10.70;99.90
25949;DHT22;13961;51.178;4.448;2023-04-10T06:29:18;10.50;99.90
25949;DHT22;13961;51.178;4.448;2023-04-10T06:31:44;10.50;99.90
25949;DHT22;13961;51.178;4.448;2023-04-10T06:34:10;10.50;99.90
25949;DHT22;13961;51.178;4.448;2023-04-10T06:36:35;10.60;99.90
25949;DHT22;13961;51.178;4.448;2023-04-10T06:39:01;10.80;99.90
25949;DHT22;13961;51.178;4.448;2023-04-10T06:41:27;11.00;99.90
25949;DHT22;13961;51.178;4.448;2023-04-10T06:43:52;10.80;99.90
25949;DHT22;13961;51.178;4.448;2023-04-10T06:46:19;10.70;99.90
25949;DHT22;13961;51.178;4.448;2023-04-10T06:48:45;10.80;99.90
25949;DHT22;13961;51.178;4.448;2023-04-10T06:51:11;10.70;99.90
25949;DHT22;13961;51.178;4.448;2023-04-10T06:53:37;10.70;99.90
25949;DHT22;13961;51.178;4.448;2023-04-10T06:56:03;10.90;99.90
25949;DHT22;13961;51.178;4.448;2023-04-10T06:58:29;10.80;99.90
25949;DHT22;13961;51.178;4.448;2023-04-10T07:00:55;11.00;99.90
25949;DHT22;13961;51.178;4.448;2023-04-10T07:03:22;10.80;99.90
25949;DHT22;13961;51.178;4.448;2023-04-10T07:05:47;10.70;99.90
25949;DHT22;13961;51.178;4.448;2023-04-10T07:08:14;10.70;99.90
25949;DHT22;13961;51.178;4.448;2023-04-10T07:10:40;11.10;99.90
25949;DHT22;13961;51.178;4.448;2023-04-10T07:13:06;11.00;99.90
25949;DHT22;13961;51.178;4.448;2023-04-10T07:15:31;11.10;99.90
25949;DHT22;13961;51.178;4.448;2023-04-10T07:17:57;11.30;99.90
25949;DHT22;13961;51.178;4.448;2023-04-10T07:20:23;11.20;99.90
25949;DHT22;13961;51.178;4.448;2023-04-10T07:22:48;11.40;99.90
25949;DHT22;13961;51.178;4.448;2023-04-10T07:25:14;11.60;99.90
25949;DHT22;13961;51.178;4.448;2023-04-10T07:27:42;11.70;99.90
25949;DHT22;13961;51.178;4.448;2023-04-10T07:30:07;11.50;99.90
25949;DHT22;13961;51.178;4.448;2023-04-10T07:32:33;11.50;99.90
25949;DHT22;13961;51.178;4.448;2023-04-10T07:34:59;11.50;99.90
25949;DHT22;13961;51.178;4.448;2023-04-10T07:37:26;11.60;99.90
25949;DHT22;13961;51.178;4.448;2023-04-10T07:39:54;11.80;99.90
25949;DHT22;13961;51.178;4.448;2023-04-10T07:42:20;11.90;99.90
25949;DHT22;13961;51.178;4.448;2023-04-10T07:44:47;12.00;99.90
25949;DHT22;13961;51.178;4.448;2023-04-10T07:47:13;12.00;99.90
25949;DHT22;13961;51.178;4.448;2023-04-10T07:49:38;12.10;99.90
25949;DHT22;13961;51.178;4.448;2023-04-10T07:52:04;12.00;99.90
25949;DHT22;13961;51.178;4.448;2023-04-10T07:54:33;12.10;99.90
25949;DHT22;13961;51.178;4.448;2023-04-10T07:56:59;12.30;99.90
25949;DHT22;13961;51.178;4.448;2023-04-10T07:59:26;12.40;99.90
25949;DHT22;13961;51.178;4.448;2023-04-10T08:01:52;12.40;99.90
25949;DHT22;13961;51.178;4.448;2023-04-10T08:04:18;12.50;99.90
25949;DHT22;13961;51.178;4.448;2023-04-10T08:06:43;12.70;99.90
25949;DHT22;13961;51.178;4.448;2023-04-10T08:09:10;12.50;99.90
25949;DHT22;13961;51.178;4.448;2023-04-10T08:11:36;12.50;99.90
25949;DHT22;13961;51.178;4.448;2023-04-10T08:14:02;12.80;99.90
25949;DHT22;13961;51.178;4.448;2023-04-10T08:16:31;13.10;99.90
25949;DHT22;13961;51.178;4.448;2023-04-10T08:18:59;13.20;99.90
25949;DHT22;13961;51.178;4.448;2023-04-10T08:21:26;13.10;99.90
25949;DHT22;13961;51.178;4.448;2023-04-10T08:23:58;13.30;99.90
25949;DHT22;13961;51.178;4.448;2023-04-10T08:26:24;13.30;99.90
25949;DHT22;13961;51.178;4.448;2023-04-10T08:28:52;13.90;99.90
25949;DHT22;13961;51.178;4.448;2023-04-10T08:31:20;14.00;99.90
25949;DHT22;13961;51.178;4.448;2023-04-10T08:33:46;13.90;99.90
25949;DHT22;13961;51.178;4.448;2023-04-10T08:36:12;13.80;99.90
25949;DHT22;13961;51.178;4.448;2023-04-10T08:38:42;13.60;99.90
25949;DHT22;13961;51.178;4.448;2023-04-10T08:41:12;13.80;99.90
25949;DHT22;13961;51.178;4.448;2023-04-10T08:43:38;13.80;99.90
25949;DHT22;13961;51.178;4.448;2023-04-10T08:46:04;13.70;99.90
25949;DHT22;13961;51.178;4.448;2023-04-10T08:51:50;14.00;99.90
25949;DHT22;13961;51.178;4.448;2023-04-10T08:54:30;14.10;99.90
25949;DHT22;13961;51.178;4.448;2023-04-10T08:56:58;14.30;99.90
25949;DHT22;13961;51.178;4.448;2023-04-10T08:59:27;14.10;99.90
25949;DHT22;13961;51.178;4.448;2023-04-10T09:01:55;14.10;99.90
25949;DHT22;13961;51.178;4.448;2023-04-10T09:04:23;13.80;99.90
25949;DHT22;13961;51.178;4.448;2023-04-10T09:06:49;13.80;99.90
25949;DHT22;13961;51.178;4.448;2023-04-10T09:09:15;13.90;99.90
25949;DHT22;13961;51.178;4.448;2023-04-10T09:14:26;14.30;99.90
25949;DHT22;13961;51.178;4.448;2023-04-10T09:16:53;14.50;99.90
25949;DHT22;13961;51.178;4.448;2023-04-10T09:19:37;14.90;99.90
25949;DHT22;13961;51.178;4.448;2023-04-10T09:22:03;14.90;99.90
25949;DHT22;13961;51.178;4.448;2023-04-10T09:24:29;14.90;99.90
25949;DHT22;13961;51.178;4.448;2023-04-10T09:26:54;14.80;99.90
25949;DHT22;13961;51.178;4.448;2023-04-10T09:29:20;14.80;99.90
25949;DHT22;13961;51.178;4.448;2023-04-10T09:31:46;15.00;99.90
25949;DHT22;13961;51.178;4.448;2023-04-10T09:34:13;15.10;99.90
25949;DHT22;13961;51.178;4.448;2023-04-10T09:36:44;15.00;99.90
25949;DHT22;13961;51.178;4.448;2023-04-10T09:39:17;14.80;99.90
25949;DHT22;13961;51.178;4.448;2023-04-10T09:41:49;14.60;99.90
25949;DHT22;13961;51.178;4.448;2023-04-10T09:44:17;14.70;99.90
25949;DHT22;13961;51.178;4.448;2023-04-10T09:46:45;14.90;99.90
25949;DHT22;13961;51.178;4.448;2023-04-10T09:49:11;15.10;99.90
25949;DHT22;13961;51.178;4.448;2023-04-10T09:51:36;15.10;99.90
25949;DHT22;13961;51.178;4.448;2023-04-10T09:54:03;15.30;99.90
25949;DHT22;13961;51.178;4.448;2023-04-10T09:56:32;15.80;99.90
25949;DHT22;13961;51.178;4.448;2023-04-10T09:59:00;16.10;99.90
25949;DHT22;13961;51.178;4.448;2023-04-10T10:01:27;16.10;99.90
25949;DHT22;13961;51.178;4.448;2023-04-10T10:03:54;16.20;99.90
25949;DHT22;13961;51.178;4.448;2023-04-10T10:06:22;16.10;99.90
25949;DHT22;13961;51.178;4.448;2023-04-10T10:08:48;16.10;99.90
25949;DHT22;13961;51.178;4.448;2023-04-10T10:11:18;15.90;99.90
25949;DHT22;13961;51.178;4.448;2023-04-10T10:13:51;15.90;99.90
25949;DHT22;13961;51.178;4.448;2023-04-10T10:21:29;16.00;99.90
25949;DHT22;13961;51.178;4.448;2023-04-10T10:24:00;16.20;99.90
25949;DHT22;13961;51.178;4.448;2023-04-10T10:26:27;16.10;99.90
25949;DHT22;13961;51.178;4.448;2023-04-10T10:28:55;16.20;99.90
25949;DHT22;13961;51.178;4.448;2023-04-10T10:31:24;16.50;99.90
25949;DHT22;13961;51.178;4.448;2023-04-10T10:33:53;16.80;99.90
25949;DHT22;13961;51.178;4.448;2023-04-10T10:36:19;16.90;99.90
25949;DHT22;13961;51.178;4.448;2023-04-10T10:38:57;17.10;99.90
25949;DHT22;13961;51.178;4.448;2023-04-10T10:41:29;16.90;99.90
25949;DHT22;13961;51.178;4.448;2023-04-10T10:44:16;16.80;99.90
25949;DHT22;13961;51.178;4.448;2023-04-10T10:47:06;16.40;99.90
25949;DHT22;13961;51.178;4.448;2023-04-10T10:49:56;16.50;99.90
25949;DHT22;13961;51.178;4.448;2023-04-10T10:52:43;16.70;99.90
25949;DHT22;13961;51.178;4.448;2023-04-10T10:58:08;17.40;99.90
25949;DHT22;13961;51.178;4.448;2023-04-10T11:01:05;17.40;99.90
25949;DHT22;13961;51.178;4.448;2023-04-10T11:03:31;17.60;99.90
25949;DHT22;13961;51.178;4.448;2023-04-10T11:13:28;18.00;99.90
25949;DHT22;13961;51.178;4.448;2023-04-10T11:15:56;17.90;99.90
25949;DHT22;13961;51.178;4.448;2023-04-10T11:28:58;17.50;99.90
25949;DHT22;13961;51.178;4.448;2023-04-10T11:31:24;17.50;99.90
25949;DHT22;13961;51.178;4.448;2023-04-10T11:36:25;17.70;99.90
25949;DHT22;13961;51.178;4.448;2023-04-10T11:39:01;17.70;99.90
25949;DHT22;13961;51.178;4.448;2023-04-10T11:41:32;18.00;99.90
25949;DHT22;13961;51.178;4.448;2023-04-10T11:44:00;18.10;99.90
25949;DHT22;13961;51.178;4.448;2023-04-10T11:46:27;18.10;99.90
25949;DHT22;13961;51.178;4.448;2023-04-10T11:48:58;18.10;99.90
25949;DHT22;13961;51.178;4.448;2023-04-10T11:51:27;17.90;99.90
25949;DHT22;13961;51.178;4.448;2023-04-10T11:54:09;17.80;99.90
25949;DHT22;13961;51.178;4.448;2023-04-10T11:56:42;17.60;99.90
25949;DHT22;13961;51.178;4.448;2023-04-10T11:59:08;17.60;99.90
25949;DHT22;13961;51.178;4.448;2023-04-10T12:01:41;17.50;99.90
25949;DHT22;13961;51.178;4.448;2023-04-10T12:04:16;17.60;99.90
25949;DHT22;13961;51.178;4.448;2023-04-10T12:06:50;17.70;99.90
25949;DHT22;13961;51.178;4.448;2023-04-10T12:09:20;17.80;99.90
25949;DHT22;13961;51.178;4.448;2023-04-10T12:12:06;17.80;99.90
25949;DHT22;13961;51.178;4.448;2023-04-10T12:14:33;17.70;99.90
25949;DHT22;13961;51.178;4.448;2023-04-10T12:17:01;17.70;99.90
25949;DHT22;13961;51.178;4.448;2023-04-10T12:19:27;17.70;99.90
25949;DHT22;13961;51.178;4.448;2023-04-10T12:21:54;17.90;99.90
25949;DHT22;13961;51.178;4.448;2023-04-10T12:24:39;18.00;99.90
25949;DHT22;13961;51.178;4.448;2023-04-10T12:27:14;18.10;99.90
25949;DHT22;13961;51.178;4.448;2023-04-10T12:29:41;18.30;99.90
25949;DHT22;13961;51.178;4.448;2023-04-10T12:32:08;18.10;99.90
25949;DHT22;13961;51.178;4.448;2023-04-10T12:34:57;18.00;99.90
25949;DHT22;13961;51.178;4.448;2023-04-10T12:37:49;17.80;99.90
25949;DHT22;13961;51.178;4.448;2023-04-10T12:40:15;17.40;99.90
25949;DHT22;13961;51.178;4.448;2023-04-10T12:42:41;17.30;99.90
25949;DHT22;13961;51.178;4.448;2023-04-10T12:45:08;17.40;99.90
25949;DHT22;13961;51.178;4.448;2023-04-10T12:47:50;17.50;99.90
25949;DHT22;13961;51.178;4.448;2023-04-10T12:50:19;17.40;99.90
25949;DHT22;13961;51.178;4.448;2023-04-10T12:53:00;17.20;99.90
25949;DHT22;13961;51.178;4.448;2023-04-10T12:55:29;17.20;99.90
25949;DHT22;13961;51.178;4.448;2023-04-10T12:57:55;17.00;99.90
25949;DHT22;13961;51.178;4.448;2023-04-10T13:00:22;16.80;99.90
25949;DHT22;13961;51.178;4.448;2023-04-10T13:02:49;16.60;99.90
25949;DHT22;13961;51.178;4.448;2023-04-10T13:05:15;16.50;99.90
25949;DHT22;13961;51.178;4.448;2023-04-10T13:07:41;16.50;99.90
25949;DHT22;13961;51.178;4.448;2023-04-10T13:10:07;16.40;99.90
25949;DHT22;13961;51.178;4.448;2023-04-10T13:12:36;16.40;99.90
25949;DHT22;13961;51.178;4.448;2023-04-10T13:15:03;16.50;99.90
25949;DHT22;13961;51.178;4.448;2023-04-10T13:17:29;16.40;99.90
25949;DHT22;13961;51.178;4.448;2023-04-10T13:19:55;16.30;99.90
25949;DHT22;13961;51.178;4.448;2023-04-10T13:22:26;16.20;99.90
25949;DHT22;13961;51.178;4.448;2023-04-10T13:24:52;16.20;99.90
25949;DHT22;13961;51.178;4.448;2023-04-10T13:27:17;16.30;99.90
25949;DHT22;13961;51.178;4.448;2023-04-10T13:29:43;16.30;99.90
25949;DHT22;13961;51.178;4.448;2023-04-10T13:32:09;16.20;99.90
25949;DHT22;13961;51.178;4.448;2023-04-10T13:34:35;16.10;99.90
25949;DHT22;13961;51.178;4.448;2023-04-10T13:37:01;16.00;99.90
25949;DHT22;13961;51.178;4.448;2023-04-10T13:39:28;16.00;99.90
25949;DHT22;13961;51.178;4.448;2023-04-10T13:41:54;16.00;99.90
25949;DHT22;13961;51.178;4.448;2023-04-10T13:44:21;15.90;99.90
25949;DHT22;13961;51.178;4.448;2023-04-10T13:46:46;15.90;99.90
25949;DHT22;13961;51.178;4.448;2023-04-10T13:49:12;15.90;99.90
25949;DHT22;13961;51.178;4.448;2023-04-10T13:51:42;15.90;99.90
25949;DHT22;13961;51.178;4.448;2023-04-10T13:54:07;15.70;99.90
25949;DHT22;13961;51.178;4.448;2023-04-10T13:56:35;15.80;99.90
25949;DHT22;13961;51.178;4.448;2023-04-10T13:59:01;15.80;99.90
25949;DHT22;13961;51.178;4.448;2023-04-10T14:01:26;15.80;99.90
25949;DHT22;13961;51.178;4.448;2023-04-10T14:03:52;15.70;99.90
25949;DHT22;13961;51.178;4.448;2023-04-10T14:06:17;15.60;99.90
25949;DHT22;13961;51.178;4.448;2023-04-10T14:08:43;15.70;99.90
25949;DHT22;13961;51.178;4.448;2023-04-10T14:11:09;15.90;99.90
25949;DHT22;13961;51.178;4.448;2023-04-10T14:13:34;15.90;99.90
25949;DHT22;13961;51.178;4.448;2023-04-10T14:16:00;16.00;99.90
25949;DHT22;13961;51.178;4.448;2023-04-10T14:18:26;16.20;99.90
25949;DHT22;13961;51.178;4.448;2023-04-10T14:20:51;16.30;99.90
25949;DHT22;13961;51.178;4.448;2023-04-10T14:23:17;16.40;99.90
25949;DHT22;13961;51.178;4.448;2023-04-10T14:25:46;16.50;99.90
25949;DHT22;13961;51.178;4.448;2023-04-10T14:28:13;16.60;99.90
25949;DHT22;13961;51.178;4.448;2023-04-10T14:30:46;16.50;99.90
25949;DHT22;13961;51.178;4.448;2023-04-10T14:33:16;16.50;99.90
25949;DHT22;13961;51.178;4.448;2023-04-10T14:35:43;16.50;99.90
25949;DHT22;13961;51.178;4.448;2023-04-10T14:38:09;16.50;99.90
25949;DHT22;13961;51.178;4.448;2023-04-10T14:40:35;16.50;99.90
25949;DHT22;13961;51.178;4.448;2023-04-10T14:43:01;16.50;99.90
25949;DHT22;13961;51.178;4.448;2023-04-10T14:45:27;16.20;99.90
25949;DHT22;13961;51.178;4.448;2023-04-10T14:47:53;16.10;99.90
25949;DHT22;13961;51.178;4.448;2023-04-10T14:50:18;16.20;99.90
25949;DHT22;13961;51.178;4.448;2023-04-10T14:52:44;16.20;99.90
25949;DHT22;13961;51.178;4.448;2023-04-10T14:55:10;16.40;99.90
25949;DHT22;13961;51.178;4.448;2023-04-10T14:57:36;16.20;99.90
25949;DHT22;13961;51.178;4.448;2023-04-10T15:00:02;16.20;99.90
25949;DHT22;13961;51.178;4.448;2023-04-10T15:02:28;15.90;99.90
25949;DHT22;13961;51.178;4.448;2023-04-10T15:04:54;16.00;99.90
25949;DHT22;13961;51.178;4.448;2023-04-10T15:07:20;15.80;99.90
25949;DHT22;13961;51.178;4.448;2023-04-10T15:09:46;15.70;99.90
25949;DHT22;13961;51.178;4.448;2023-04-10T15:12:12;15.60;99.90
25949;DHT22;13961;51.178;4.448;2023-04-10T15:14:37;15.50;99.90
25949;DHT22;13961;51.178;4.448;2023-04-10T15:17:03;15.40;99.90
25949;DHT22;13961;51.178;4.448;2023-04-10T15:19:29;15.40;99.90
25949;DHT22;13961;51.178;4.448;2023-04-10T15:21:54;15.20;99.90
25949;DHT22;13961;51.178;4.448;2023-04-10T15:24:20;15.20;99.90
25949;DHT22;13961;51.178;4.448;2023-04-10T15:26:46;15.10;99.90
25949;DHT22;13961;51.178;4.448;2023-04-10T15:29:12;15.10;99.90
25949;DHT22;13961;51.178;4.448;2023-04-10T15:31:38;15.00;99.90
25949;DHT22;13961;51.178;4.448;2023-04-10T15:34:04;15.10;99.90
25949;DHT22;13961;51.178;4.448;2023-04-10T15:36:29;15.00;99.90
25949;DHT22;13961;51.178;4.448;2023-04-10T15:38:56;15.00;99.90
25949;DHT22;13961;51.178;4.448;2023-04-10T15:41:24;14.90;99.90
25949;DHT22;13961;51.178;4.448;2023-04-10T15:43:52;14.90;99.90
25949;DHT22;13961;51.178;4.448;2023-04-10T15:46:18;14.70;99.90
25949;DHT22;13961;51.178;4.448;2023-04-10T15:48:44;14.50;99.90
25949;DHT22;13961;51.178;4.448;2023-04-10T15:51:13;14.60;99.90
25949;DHT22;13961;51.178;4.448;2023-04-10T15:53:38;14.30;99.90
25949;DHT22;13961;51.178;4.448;2023-04-10T15:56:04;14.20;99.90
25949;DHT22;13961;51.178;4.448;2023-04-10T15:58:33;14.00;99.90
25949;DHT22;13961;51.178;4.448;2023-04-10T16:00:59;14.00;99.90
25949;DHT22;13961;51.178;4.448;2023-04-10T16:03:25;14.10;99.90
25949;DHT22;13961;51.178;4.448;2023-04-10T16:05:52;14.00;99.90
25949;DHT22;13961;51.178;4.448;2023-04-10T16:08:18;14.00;99.90
25949;DHT22;13961;51.178;4.448;2023-04-10T16:10:43;13.80;99.90
25949;DHT22;13961;51.178;4.448;2023-04-10T16:13:09;14.10;99.90
25949;DHT22;13961;51.178;4.448;2023-04-10T16:15:37;14.10;99.90